createdAt,value
2023-05-07T09:37:33.988Z,-69.00
2023-05-07T09:38:32.788Z,-70.00
2023-05-07T09:40:19.193Z,-71.00
2023-05-07T09:41:19.565Z,-70.00
2023-05-07T09:42:20.253Z,-69.00
2023-05-07T09:43:21.109Z,-69.00
2023-05-07T09:44:21.855Z,-69.00
2023-05-07T09:45:22.389Z,-70.00
2023-05-07T09:46:22.924Z,-71.00
2023-05-07T09:47:23.587Z,-70.00
2023-05-07T09:48:24.118Z,-73.00
2023-05-07T09:49:24.780Z,-66.00
2023-05-07T09:50:25.300Z,-65.00
2023-05-07T09:51:25.803Z,-66.00
2023-05-07T09:52:26.282Z,-65.00
2023-05-07T09:53:26.817Z,-66.00
2023-05-07T09:54:27.221Z,-66.00
2023-05-07T09:55:27.648Z,-66.00
2023-05-07T09:56:28.077Z,-65.00
2023-05-07T09:57:28.275Z,-65.00
2023-05-07T09:58:29.211Z,-66.00
2023-05-07T09:59:30.503Z,-66.00
2023-05-07T10:00:30.189Z,-66.00
2023-05-07T10:01:30.801Z,-66.00
2023-05-07T10:10:04.964Z,-67.00
2023-05-07T10:11:05.563Z,-67.00
2023-05-07T10:12:06.104Z,-66.00
2023-05-07T10:13:06.634Z,-67.00
2023-05-07T10:14:07.153Z,-70.00
2023-05-07T10:24:12.141Z,-67.00
2023-05-07T10:25:12.250Z,-67.00
2023-05-07T10:26:12.462Z,-65.00
2023-05-07T10:27:12.900Z,-67.00
2023-05-07T10:28:13.372Z,-66.00
2023-05-07T10:29:13.839Z,-66.00
2023-05-07T10:30:14.447Z,-66.00
2023-05-07T10:31:14.886Z,-67.00
2023-05-07T10:32:15.418Z,-66.00
2023-05-07T10:33:15.964Z,-66.00
2023-05-07T10:34:16.412Z,-68.00
2023-05-07T10:35:16.872Z,-66.00
2023-05-07T10:36:17.486Z,-67.00
2023-05-07T10:37:17.922Z,-66.00
2023-05-07T10:38:18.385Z,-67.00
2023-05-07T10:39:18.862Z,-67.00
2023-05-07T10:40:19.480Z,-67.00
2023-05-07T10:41:19.876Z,-66.00
2023-05-07T10:42:20.243Z,-68.00
2023-05-07T10:43:20.642Z,-67.00
2023-05-07T10:44:21.156Z,-67.00
2023-05-07T10:45:21.756Z,-67.00
2023-05-07T10:46:22.263Z,-67.00
2023-05-07T10:47:22.667Z,-67.00
2023-05-07T10:48:30.033Z,-67.00
2023-05-07T10:49:24.649Z,-66.00
2023-05-07T10:50:24.107Z,-66.00
2023-05-07T10:51:24.903Z,-67.00
2023-05-07T10:52:25.494Z,-68.00
2023-05-07T10:53:25.923Z,-68.00
2023-05-07T10:54:26.378Z,-67.00
2023-05-07T10:55:27.368Z,-67.00
2023-05-07T10:56:27.741Z,-66.00
2023-05-07T10:56:44.937Z,-67.00
2023-05-07T10:57:45.343Z,-68.00
2023-05-07T10:58:45.890Z,-67.00
2023-05-07T10:59:46.151Z,-67.00
2023-05-07T11:00:46.707Z,-66.00
2023-05-07T11:01:47.321Z,-66.00
2023-05-07T11:02:47.961Z,-65.00
2023-05-07T11:03:48.359Z,-67.00
2023-05-07T11:04:48.846Z,-67.00
2023-05-07T11:05:49.372Z,-66.00
2023-05-07T11:06:49.908Z,-65.00
2023-05-07T11:07:50.433Z,-66.00
2023-05-07T11:08:50.900Z,-66.00
2023-05-07T11:09:51.433Z,-67.00
2023-05-07T11:10:52.162Z,-67.00
2023-05-07T11:11:52.616Z,-66.00
2023-05-07T11:12:53.111Z,-66.00
2023-05-07T11:13:53.472Z,-66.00
2023-05-07T11:14:53.947Z,-67.00
2023-05-07T11:15:54.489Z,-70.00
2023-05-07T11:16:54.949Z,-73.00
2023-05-07T11:17:55.448Z,-73.00
2023-05-07T11:18:56.049Z,-73.00
2023-05-07T11:19:56.713Z,-73.00
2023-05-07T11:20:56.673Z,-74.00
2023-05-07T11:21:57.219Z,-74.00
2023-05-07T11:22:57.746Z,-73.00
2023-05-07T11:23:58.570Z,-73.00
2023-05-07T11:24:59.049Z,-74.00
2023-05-07T11:25:59.702Z,-74.00
2023-05-07T11:27:00.205Z,-74.00
2023-05-07T11:28:00.711Z,-73.00
2023-05-07T11:29:01.229Z,-75.00
2023-05-07T11:30:01.692Z,-74.00
2023-05-07T11:31:02.570Z,-73.00
2023-05-07T11:31:47.959Z,-73.00
2023-05-07T11:32:48.431Z,-73.00
2023-05-07T11:33:48.802Z,-74.00
2023-05-07T11:34:49.220Z,-74.00
2023-05-07T11:35:49.627Z,-73.00
2023-05-07T11:36:50.167Z,-73.00
2023-05-07T11:37:50.658Z,-73.00
2023-05-07T11:38:51.144Z,-73.00
2023-05-07T11:39:51.706Z,-71.00
2023-05-07T11:40:51.626Z,-72.00
2023-05-07T11:41:53.569Z,-73.00
2023-05-07T11:42:52.842Z,-75.00
2023-05-07T11:43:53.392Z,-74.00
2023-05-07T11:44:53.854Z,-72.00
2023-05-07T11:45:54.534Z,-73.00
2023-05-07T11:46:55.019Z,-73.00
2023-05-07T11:47:55.671Z,-73.00
2023-05-07T11:48:55.970Z,-74.00
2023-05-07T11:49:56.502Z,-72.00
2023-05-07T11:50:56.971Z,-74.00
2023-05-07T11:51:57.468Z,-73.00
2023-05-07T11:52:57.961Z,-72.00
2023-05-07T11:53:58.517Z,-75.00
2023-05-07T11:54:58.977Z,-74.00
2023-05-07T11:55:59.454Z,-74.00
2023-05-07T11:56:59.994Z,-75.00
2023-05-07T11:58:00.479Z,-73.00
2023-05-07T11:59:32.111Z,-73.00
2023-05-07T12:00:32.886Z,-74.00
2023-05-07T12:01:32.948Z,-73.00
2023-05-07T12:02:33.498Z,-74.00
2023-05-07T12:03:36.350Z,-73.00
2023-05-07T12:04:34.436Z,-74.00
2023-05-07T12:05:34.855Z,-73.00
2023-05-07T12:06:35.380Z,-73.00
2023-05-07T12:07:35.878Z,-72.00
2023-05-07T12:08:36.387Z,-72.00
2023-05-07T12:09:36.975Z,-73.00
2023-05-07T12:10:37.362Z,-73.00
2023-05-07T12:11:37.796Z,-72.00
2023-05-07T12:12:38.300Z,-73.00
2023-05-07T12:13:39.010Z,-74.00
2023-05-07T12:14:39.632Z,-73.00
2023-05-07T12:15:40.132Z,-73.00
2023-05-07T12:16:40.654Z,-72.00
2023-05-07T12:17:41.193Z,-73.00
2023-05-07T12:18:41.693Z,-73.00
2023-05-07T12:19:42.533Z,-74.00
2023-05-07T12:20:43.079Z,-73.00
2023-05-07T12:21:43.595Z,-73.00
2023-05-07T12:22:44.046Z,-73.00
2023-05-07T12:23:44.576Z,-73.00
2023-05-07T12:24:45.341Z,-73.00
2023-05-07T12:25:45.889Z,-74.00
2023-05-07T12:26:46.372Z,-73.00
2023-05-07T12:27:47.179Z,-75.00
2023-05-07T12:28:47.655Z,-68.00
2023-05-07T12:29:48.113Z,-68.00
2023-05-07T12:30:48.808Z,-67.00
2023-05-07T12:31:49.596Z,-68.00
2023-05-07T12:32:03.222Z,-67.00
2023-05-07T12:33:03.043Z,-67.00
2023-05-07T12:34:03.437Z,-66.00
2023-05-07T12:35:03.934Z,-68.00
2023-05-07T12:36:04.375Z,-67.00
2023-05-07T12:37:28.998Z,-68.00
2023-05-07T12:42:08.481Z,-73.00
2023-05-07T12:43:09.114Z,-73.00
2023-05-07T12:44:09.598Z,-74.00
2023-05-07T12:45:10.399Z,-75.00
2023-05-07T12:46:10.809Z,-74.00
2023-05-07T12:47:11.502Z,-74.00
2023-05-07T12:48:12.129Z,-74.00
2023-05-07T12:49:12.709Z,-74.00
2023-05-07T12:50:13.137Z,-73.00
2023-05-07T12:51:13.702Z,-74.00
2023-05-07T12:52:14.120Z,-72.00
2023-05-07T12:53:14.954Z,-74.00
2023-05-07T12:54:15.552Z,-75.00
2023-05-07T12:55:16.105Z,-74.00
2023-05-07T12:56:16.710Z,-73.00
2023-05-07T12:57:17.168Z,-73.00
2023-05-07T12:58:17.507Z,-74.00
2023-05-07T12:59:18.219Z,-74.00
2023-05-07T13:00:48.042Z,-67.00
2023-05-07T13:01:47.739Z,-66.00
2023-05-07T13:02:48.403Z,-67.00
2023-05-07T13:03:48.857Z,-68.00
2023-05-07T13:04:49.435Z,-67.00
2023-05-07T13:05:50.049Z,-68.00
2023-05-07T13:06:50.814Z,-68.00
2023-05-07T13:07:51.264Z,-67.00
2023-05-07T13:08:51.782Z,-67.00
2023-05-07T13:09:52.328Z,-68.00
2023-05-07T13:10:53.063Z,-67.00
2023-05-07T13:11:53.602Z,-67.00
2023-05-07T13:12:54.174Z,-67.00
2023-05-07T13:13:54.629Z,-67.00
2023-05-07T13:14:55.150Z,-67.00
2023-05-07T13:15:55.683Z,-67.00
2023-05-07T13:16:56.258Z,-68.00
2023-05-07T13:17:56.809Z,-68.00
2023-05-07T13:18:57.226Z,-68.00
2023-05-07T13:19:57.866Z,-66.00
2023-05-07T13:20:58.405Z,-67.00
2023-05-07T13:21:59.080Z,-68.00
2023-05-07T13:22:59.576Z,-68.00
2023-05-07T13:24:00.118Z,-67.00
2023-05-07T13:25:00.975Z,-67.00
2023-05-07T13:26:08.458Z,-67.00
2023-05-07T13:27:02.154Z,-68.00
2023-05-07T13:28:10.149Z,-66.00
2023-05-07T13:29:03.395Z,-67.00
2023-05-07T13:30:04.089Z,-67.00
2023-05-07T13:31:04.595Z,-68.00
2023-05-07T13:32:05.447Z,-67.00
2023-05-07T13:33:06.228Z,-67.00
2023-05-07T13:33:18.418Z,-66.00
2023-05-07T13:34:18.862Z,-66.00
2023-05-07T13:35:18.938Z,-67.00
2023-05-07T13:36:19.492Z,-67.00
2023-05-07T13:37:20.195Z,-67.00
2023-05-07T13:38:21.368Z,-67.00
2023-05-07T13:39:21.249Z,-67.00
2023-05-07T13:40:21.816Z,-68.00
2023-05-07T13:41:22.450Z,-67.00
2023-05-07T13:42:22.946Z,-67.00
2023-05-07T13:43:23.479Z,-68.00
2023-05-07T13:44:24.146Z,-67.00
2023-05-07T13:45:24.778Z,-67.00
2023-05-07T13:46:24.966Z,-67.00
2023-05-07T13:47:25.144Z,-67.00
2023-05-07T13:48:25.712Z,-74.00
2023-05-07T13:49:26.331Z,-74.00
2023-05-07T13:50:26.890Z,-73.00
2023-05-07T13:51:27.367Z,-74.00
2023-05-07T13:52:27.954Z,-73.00
2023-05-07T13:53:28.464Z,-75.00
2023-05-07T13:54:28.993Z,-73.00
2023-05-07T13:55:29.500Z,-74.00
2023-05-07T13:56:29.974Z,-72.00
2023-05-07T13:57:30.606Z,-72.00
2023-05-07T13:58:31.101Z,-74.00
2023-05-07T13:59:31.668Z,-72.00
2023-05-07T14:00:32.289Z,-72.00
2023-05-07T14:01:33.115Z,-72.00
2023-05-07T14:02:33.956Z,-73.00
2023-05-07T14:03:34.579Z,-73.00
2023-05-07T14:04:35.048Z,-72.00
2023-05-07T14:05:35.620Z,-73.00
2023-05-07T14:06:22.468Z,-73.00
2023-05-07T14:07:22.916Z,-73.00
2023-05-07T14:08:23.669Z,-73.00
2023-05-07T14:09:24.365Z,-73.00
2023-05-07T14:10:24.813Z,-73.00
2023-05-07T14:11:25.231Z,-73.00
2023-05-07T14:12:25.707Z,-74.00
2023-05-07T14:13:26.188Z,-73.00
2023-05-07T14:14:26.607Z,-73.00
2023-05-07T14:15:27.092Z,-73.00
2023-05-07T14:16:27.663Z,-73.00
2023-05-07T14:17:28.110Z,-72.00
2023-05-07T14:18:28.573Z,-73.00
2023-05-07T14:19:29.146Z,-73.00
2023-05-07T14:20:29.849Z,-73.00
2023-05-07T14:21:30.537Z,-73.00
2023-05-07T14:22:31.034Z,-73.00
2023-05-07T14:23:31.583Z,-73.00
2023-05-07T14:24:38.129Z,-73.00
2023-05-07T14:33:41.754Z,-67.00
2023-05-07T14:34:40.060Z,-67.00
2023-05-07T14:35:40.582Z,-68.00
2023-05-07T14:36:41.294Z,-67.00
2023-05-07T14:37:41.720Z,-69.00
2023-05-07T14:38:42.213Z,-68.00
2023-05-07T14:39:42.732Z,-68.00
2023-05-07T14:40:43.546Z,-67.00
2023-05-07T14:41:43.719Z,-68.00
2023-05-07T14:42:44.288Z,-68.00
2023-05-07T14:43:44.792Z,-67.00
2023-05-07T14:44:45.322Z,-67.00
2023-05-07T14:45:45.820Z,-67.00
2023-05-07T14:46:46.360Z,-68.00
2023-05-07T14:47:46.896Z,-68.00
2023-05-07T14:48:47.724Z,-68.00
2023-05-07T14:49:48.414Z,-67.00
2023-05-07T14:50:49.128Z,-66.00
2023-05-07T14:51:49.706Z,-69.00
2023-05-07T14:52:50.170Z,-68.00
2023-05-07T14:53:50.628Z,-66.00
2023-05-07T14:54:51.150Z,-67.00
2023-05-07T14:55:51.770Z,-66.00
2023-05-07T14:56:52.634Z,-66.00
2023-05-07T14:57:52.879Z,-67.00
2023-05-07T14:58:53.400Z,-67.00
2023-05-07T14:59:53.176Z,-67.00
2023-05-07T15:00:53.714Z,-67.00
2023-05-07T15:02:16.893Z,-67.00
2023-05-07T15:03:40.764Z,-74.00
2023-05-07T15:11:03.762Z,-75.00
2023-05-07T15:12:03.742Z,-73.00
2023-05-07T15:13:04.272Z,-73.00
2023-05-07T15:14:04.697Z,-73.00
2023-05-07T15:15:05.355Z,-75.00
2023-05-07T15:16:06.356Z,-75.00
2023-05-07T15:17:06.782Z,-74.00
2023-05-07T15:18:07.307Z,-74.00
2023-05-07T15:19:07.660Z,-72.00
2023-05-07T15:20:08.068Z,-73.00
2023-05-07T15:21:08.773Z,-76.00
2023-05-07T15:22:09.221Z,-73.00
2023-05-07T15:23:09.877Z,-74.00
2023-05-07T15:24:10.642Z,-74.00
2023-05-07T15:25:11.165Z,-74.00
2023-05-07T15:26:11.937Z,-74.00
2023-05-07T15:27:12.521Z,-74.00
2023-05-07T15:28:13.106Z,-73.00
2023-05-07T15:34:09.537Z,-68.00
2023-05-07T15:35:10.487Z,-66.00
2023-05-07T15:36:10.743Z,-68.00
2023-05-07T15:37:11.202Z,-67.00
2023-05-07T15:38:11.579Z,-67.00
2023-05-07T15:39:12.206Z,-65.00
2023-05-07T15:40:12.693Z,-65.00
2023-05-07T15:41:13.120Z,-66.00
2023-05-07T15:42:13.554Z,-67.00
2023-05-07T15:43:14.224Z,-66.00
2023-05-07T15:44:15.101Z,-66.00
2023-05-07T15:45:15.553Z,-66.00
2023-05-07T15:46:16.152Z,-66.00
2023-05-07T15:47:16.529Z,-66.00
2023-05-07T15:48:17.033Z,-66.00
2023-05-07T15:49:17.499Z,-66.00
2023-05-07T15:50:18.003Z,-67.00
2023-05-07T15:51:18.376Z,-66.00
2023-05-07T15:52:18.772Z,-66.00
2023-05-07T15:53:19.272Z,-65.00
2023-05-07T15:54:19.852Z,-66.00
2023-05-07T15:55:20.376Z,-65.00
2023-05-07T15:56:20.820Z,-66.00
2023-05-07T15:57:21.285Z,-66.00
2023-05-07T15:58:21.634Z,-64.00
2023-05-07T15:59:22.114Z,-67.00
2023-05-07T16:00:22.618Z,-65.00
2023-05-07T16:01:25.856Z,-66.00
2023-05-07T16:02:24.166Z,-66.00
2023-05-07T16:03:24.730Z,-66.00
2023-05-07T16:04:25.074Z,-67.00
2023-05-07T16:05:25.641Z,-66.00
2023-05-07T16:06:26.079Z,-68.00
2023-05-07T16:07:26.619Z,-68.00
2023-05-07T16:08:27.076Z,-67.00
2023-05-07T16:08:44.738Z,-67.00
2023-05-07T16:09:45.250Z,-68.00
2023-05-07T16:10:45.728Z,-68.00
2023-05-07T16:11:46.312Z,-68.00
2023-05-07T16:12:46.915Z,-67.00
2023-05-07T16:13:47.330Z,-67.00
2023-05-07T16:14:47.758Z,-66.00
2023-05-07T16:15:48.417Z,-68.00
2023-05-07T16:17:21.313Z,-84.00
2023-05-07T16:18:21.936Z,-87.00
2023-05-07T16:19:22.348Z,-84.00
2023-05-07T16:20:22.858Z,-85.00
2023-05-07T16:21:23.342Z,-85.00
2023-05-07T16:22:23.972Z,-86.00
2023-05-07T16:23:24.340Z,-84.00
2023-05-07T16:24:24.979Z,-83.00
2023-05-07T16:25:25.422Z,-86.00
2023-05-07T16:26:25.879Z,-85.00
2023-05-07T16:27:26.313Z,-85.00
2023-05-07T16:28:26.808Z,-84.00
2023-05-07T16:29:27.429Z,-86.00
2023-05-07T16:30:27.839Z,-84.00
2023-05-07T16:31:28.394Z,-88.00
2023-05-07T16:32:29.314Z,-88.00
2023-05-07T16:33:29.880Z,-85.00
2023-05-07T16:34:32.184Z,-85.00
2023-05-07T16:35:30.718Z,-86.00
2023-05-07T16:36:31.678Z,-87.00
2023-05-07T16:37:32.427Z,-88.00
2023-05-07T16:38:32.849Z,-88.00
2023-05-07T16:39:33.360Z,-87.00
2023-05-07T16:40:33.790Z,-86.00
2023-05-07T16:41:34.130Z,-88.00
2023-05-07T16:42:34.714Z,-84.00
2023-05-07T16:43:36.198Z,-86.00
2023-05-07T16:44:35.614Z,-83.00
2023-05-07T16:45:36.245Z,-84.00
2023-05-07T16:46:36.795Z,-88.00
2023-05-07T16:47:37.652Z,-83.00
2023-05-07T16:48:38.069Z,-85.00
2023-05-07T16:49:38.844Z,-84.00
2023-05-07T16:49:48.029Z,-90.00
2023-05-07T16:50:48.876Z,-85.00
2023-05-07T16:51:49.740Z,-83.00
2023-05-07T16:52:50.200Z,-85.00
2023-05-07T16:53:50.979Z,-83.00
2023-05-07T16:54:50.873Z,-86.00
2023-05-07T16:55:51.350Z,-85.00
2023-05-07T16:56:51.861Z,-85.00
2023-05-07T16:57:52.486Z,-84.00
2023-05-07T16:58:52.910Z,-85.00
2023-05-07T16:59:53.500Z,-87.00
2023-05-07T17:00:54.077Z,-85.00
2023-05-07T17:01:56.466Z,-86.00
2023-05-07T17:02:55.387Z,-85.00
2023-05-07T17:03:56.107Z,-86.00
2023-05-07T17:04:56.491Z,-86.00
2023-05-07T17:05:56.901Z,-87.00
2023-05-07T17:06:57.584Z,-85.00
2023-05-07T17:07:58.101Z,-88.00
2023-05-07T17:08:58.606Z,-88.00
2023-05-07T17:09:59.092Z,-88.00
2023-05-07T17:10:59.873Z,-88.00
2023-05-07T17:12:00.486Z,-86.00
2023-05-07T17:19:01.052Z,-88.00
2023-05-07T17:20:01.852Z,-88.00
2023-05-07T17:21:02.467Z,-88.00
2023-05-07T17:22:02.913Z,-87.00
2023-05-07T17:23:03.516Z,-89.00
2023-05-07T17:23:12.210Z,-85.00
2023-05-07T17:24:13.120Z,-86.00
2023-05-07T17:25:15.091Z,-89.00
2023-05-07T17:26:13.999Z,-85.00
2023-05-07T17:27:14.443Z,-88.00
2023-05-07T17:28:14.916Z,-90.00
2023-05-07T17:29:15.528Z,-84.00
2023-05-07T17:30:16.326Z,-84.00
2023-05-07T17:31:16.773Z,-84.00
2023-05-07T17:32:17.259Z,-84.00
2023-05-07T17:33:21.511Z,-86.00
2023-05-07T17:34:18.233Z,-84.00
2023-05-07T17:35:18.754Z,-86.00
2023-05-07T17:36:19.298Z,-87.00
2023-05-07T17:37:21.029Z,-88.00
2023-05-07T17:38:20.775Z,-87.00
2023-05-07T17:39:21.348Z,-86.00
2023-05-07T17:40:22.257Z,-84.00
2023-05-07T17:41:22.797Z,-82.00
2023-05-07T17:42:23.322Z,-84.00
2023-05-07T17:43:23.810Z,-86.00
2023-05-07T17:44:24.667Z,-84.00
2023-05-07T17:45:25.502Z,-81.00
2023-05-07T17:46:26.333Z,-83.00
2023-05-07T17:47:26.689Z,-84.00
2023-05-07T17:48:27.131Z,-85.00
2023-05-07T17:49:28.244Z,-84.00
2023-05-07T17:50:28.096Z,-83.00
2023-05-07T17:51:30.168Z,-85.00
2023-05-07T17:52:28.594Z,-85.00
2023-05-07T17:53:28.757Z,-86.00
2023-05-07T17:53:40.386Z,-85.00
2023-05-07T17:54:40.511Z,-87.00
2023-05-07T17:55:40.621Z,-86.00
2023-05-07T17:56:38.762Z,-85.00
2023-05-07T17:57:38.888Z,-86.00
2023-05-07T17:59:40.523Z,-85.00
2023-05-07T18:00:43.534Z,-86.00
2023-05-07T18:01:42.091Z,-86.00
2023-05-07T18:02:42.697Z,-86.00
2023-05-07T18:03:43.189Z,-87.00
2023-05-07T18:04:43.769Z,-85.00
2023-05-07T18:05:44.436Z,-86.00
2023-05-07T18:06:44.967Z,-86.00
2023-05-07T18:07:53.026Z,-87.00
2023-05-07T18:08:46.478Z,-86.00
2023-05-07T18:09:46.559Z,-87.00
2023-05-07T18:10:49.383Z,-83.00
2023-05-07T18:11:47.937Z,-85.00
2023-05-07T18:12:51.383Z,-86.00
2023-05-07T18:13:49.748Z,-85.00
2023-05-07T18:14:51.404Z,-86.00
2023-05-07T18:15:51.273Z,-86.00
2023-05-07T18:16:51.861Z,-87.00
2023-05-07T18:17:52.029Z,-84.00
2023-05-07T18:19:54.926Z,-87.00
2023-05-07T18:21:03.636Z,-85.00
2023-05-07T18:22:11.876Z,-85.00
2023-05-07T18:23:04.663Z,-85.00
2023-05-07T18:24:12.848Z,-84.00
2023-05-07T18:25:06.150Z,-86.00
2023-05-07T18:28:23.253Z,-86.00
2023-05-07T18:29:41.044Z,-85.00
2023-05-07T18:30:31.674Z,-87.00
2023-05-07T18:31:31.826Z,-86.00
2023-05-07T18:32:27.402Z,-86.00
2023-05-07T18:33:28.094Z,-87.00
2023-05-07T18:37:51.729Z,-85.00
2023-05-07T18:38:45.003Z,-85.00
2023-05-07T18:39:52.402Z,-87.00
2023-05-07T18:40:45.984Z,-87.00
2023-05-07T18:41:53.900Z,-85.00
2023-05-07T18:42:47.201Z,-84.00
2023-05-07T18:43:47.552Z,-84.00
2023-05-07T18:44:48.010Z,-86.00
2023-05-07T18:45:55.336Z,-84.00
2023-05-07T18:50:09.251Z,-85.00
2023-05-07T18:51:06.621Z,-85.00
2023-05-07T18:52:09.573Z,-85.00
2023-05-07T18:53:08.242Z,-85.00
2023-05-07T18:54:08.287Z,-86.00
2023-05-07T18:55:08.804Z,-87.00
2023-05-07T18:56:08.915Z,-86.00
2023-05-07T18:57:11.991Z,-85.00
2023-05-07T18:58:17.393Z,-88.00
2023-05-07T18:59:18.028Z,-85.00
2023-05-07T19:00:19.906Z,-85.00
2023-05-07T19:01:20.364Z,-85.00
2023-05-07T19:02:23.882Z,-85.00
2023-05-07T19:03:21.586Z,-86.00
2023-05-07T19:04:22.080Z,-87.00
2023-05-07T19:05:22.619Z,-85.00
2023-05-07T19:06:23.277Z,-88.00
2023-05-07T19:07:26.177Z,-86.00
2023-05-07T19:08:24.548Z,-87.00
2023-05-07T19:09:25.042Z,-88.00
2023-05-07T19:10:25.136Z,-86.00
2023-05-07T19:11:25.606Z,-87.00
2023-05-07T19:12:26.105Z,-87.00
2023-05-07T19:13:26.809Z,-84.00
2023-05-07T19:14:27.078Z,-86.00
2023-05-07T19:15:27.664Z,-85.00
2023-05-07T19:16:31.441Z,-87.00
2023-05-07T19:17:36.367Z,-88.00
2023-05-07T19:18:29.845Z,-87.00
2023-05-07T19:19:29.992Z,-87.00
2023-05-07T19:20:32.843Z,-88.00
2023-05-07T19:24:51.892Z,-86.00
2023-05-07T19:25:54.882Z,-87.00
2023-05-07T19:30:18.895Z,-88.00
2023-05-07T19:31:12.235Z,-88.00
2023-05-07T19:32:19.989Z,-87.00
2023-05-07T19:33:13.321Z,-86.00
2023-05-07T19:34:21.406Z,-90.00
2023-05-07T19:35:19.736Z,-87.00
2023-05-07T19:36:22.531Z,-88.00
2023-05-07T19:37:36.646Z,-89.00
2023-05-07T19:41:45.612Z,-86.00
2023-05-07T19:46:05.512Z,-90.00
2023-05-07T19:47:03.331Z,-88.00
2023-05-07T19:51:31.502Z,-88.00
2023-05-07T19:52:27.428Z,-88.00
2023-05-07T19:56:46.015Z,-89.00
2023-05-07T19:57:46.883Z,-90.00
2023-05-07T20:02:07.358Z,-87.00
2023-05-07T20:03:05.164Z,-87.00
2023-05-07T20:04:05.644Z,-89.00
2023-05-07T20:05:08.227Z,-87.00
2023-05-07T20:06:06.667Z,-87.00
2023-05-07T20:07:09.852Z,-87.00
2023-05-07T20:08:15.001Z,-87.00
2023-05-07T20:09:07.924Z,-88.00
2023-05-07T20:10:47.873Z,-86.00
2023-05-07T20:11:55.412Z,-88.00
2023-05-07T20:12:52.252Z,-87.00
2023-05-07T20:13:52.393Z,-88.00
2023-05-07T20:15:32.557Z,-87.00
2023-05-07T20:16:33.551Z,-88.00
2023-05-07T20:17:30.882Z,-89.00
2023-05-07T20:18:31.833Z,-87.00
2023-05-07T20:19:34.249Z,-87.00
2023-05-07T20:20:32.918Z,-88.00
2023-05-07T20:21:40.701Z,-88.00
2023-05-07T20:22:36.336Z,-89.00
2023-05-07T20:23:44.841Z,-88.00
2023-05-07T20:25:03.547Z,-89.00
2023-05-07T20:25:45.878Z,-89.00
2023-05-07T20:26:48.857Z,-87.00
2023-05-07T20:27:48.872Z,-88.00
2023-05-07T20:28:49.748Z,-88.00
2023-05-07T20:29:55.064Z,-87.00
2023-05-07T20:31:46.595Z,-88.00
2023-05-07T20:31:49.291Z,-85.00
2023-05-07T20:32:51.865Z,-86.00
2023-05-07T20:33:50.482Z,-87.00
2023-05-07T20:34:53.917Z,-89.00
2023-05-07T20:35:52.045Z,-88.00
2023-05-07T20:36:54.699Z,-87.00
2023-05-07T20:37:52.595Z,-90.00
2023-05-07T20:38:53.012Z,-88.00
2023-05-07T20:40:01.095Z,-89.00
2023-05-07T20:40:54.753Z,-88.00
2023-05-07T20:42:03.038Z,-88.00
2023-05-07T20:42:56.184Z,-88.00
2023-05-07T20:43:58.640Z,-88.00
2023-05-07T20:50:36.924Z,-86.00
2023-05-07T20:51:23.633Z,-88.00
2023-05-07T20:53:07.280Z,-87.00
2023-05-07T20:54:07.439Z,-87.00
2023-05-07T20:56:12.275Z,-88.00
2023-05-07T20:57:03.370Z,-87.00
2023-05-07T20:58:03.494Z,-88.00
2023-05-07T20:59:06.347Z,-88.00
2023-05-07T21:00:05.060Z,-88.00
2023-05-07T21:01:08.596Z,-88.00
2023-05-07T21:02:08.672Z,-87.00
2023-05-07T21:03:06.669Z,-88.00
2023-05-07T21:04:06.908Z,-87.00
2023-05-07T21:05:07.811Z,-87.00
2023-05-07T21:06:08.751Z,-87.00
2023-05-07T21:10:29.737Z,-88.00
2023-05-07T21:11:45.559Z,-88.00
2023-05-07T21:12:28.811Z,-88.00
2023-05-07T21:15:55.997Z,-87.00
2023-05-07T21:16:56.314Z,-87.00
2023-05-07T21:18:49.631Z,-89.00
2023-05-07T21:23:39.224Z,-87.00
2023-05-07T21:27:55.244Z,-87.00
2023-05-07T21:28:53.062Z,-88.00
2023-05-07T21:29:56.206Z,-88.00
2023-05-07T21:34:12.611Z,-88.00
2023-05-07T21:35:15.677Z,-88.00
2023-05-07T21:36:22.546Z,-88.00
2023-05-07T21:40:34.361Z,-88.00
2023-05-07T21:41:35.148Z,-88.00
2023-05-07T21:43:33.984Z,-88.00
2023-05-07T21:48:00.183Z,-88.00
2023-05-07T21:49:00.745Z,-89.00
2023-05-07T21:50:01.375Z,-90.00
2023-05-07T21:51:01.801Z,-87.00
2023-05-07T21:52:02.253Z,-86.00
2023-05-07T21:52:11.975Z,-88.00
2023-05-07T21:53:12.352Z,-87.00
2023-05-07T21:54:12.911Z,-88.00
2023-05-07T21:55:13.505Z,-89.00
2023-05-07T21:56:13.891Z,-89.00
2023-05-07T21:57:14.840Z,-89.00
2023-05-07T21:58:15.213Z,-87.00
2023-05-07T21:59:18.798Z,-88.00
2023-05-07T22:00:16.445Z,-89.00
2023-05-07T22:01:17.442Z,-86.00
2023-05-07T22:02:17.869Z,-89.00
2023-05-07T22:03:18.566Z,-88.00
2023-05-07T22:04:18.813Z,-89.00
2023-05-07T22:05:19.446Z,-90.00
2023-05-07T22:06:19.853Z,-89.00
2023-05-07T22:07:21.265Z,-87.00
2023-05-07T22:08:20.739Z,-88.00
2023-05-07T22:09:21.211Z,-89.00
2023-05-07T22:10:21.651Z,-88.00
2023-05-07T22:11:22.356Z,-90.00
2023-05-07T22:12:23.148Z,-88.00
2023-05-07T22:13:23.954Z,-88.00
2023-05-07T22:14:24.528Z,-90.00
2023-05-07T22:15:25.063Z,-90.00
2023-05-07T22:16:27.098Z,-90.00
2023-05-07T22:17:26.567Z,-89.00
2023-05-07T22:18:27.004Z,-91.00
2023-05-07T22:19:27.983Z,-90.00
2023-05-07T22:20:28.451Z,-91.00
2023-05-07T22:21:28.980Z,-89.00
2023-05-07T22:21:38.083Z,-88.00
2023-05-07T22:22:38.979Z,-89.00
2023-05-07T22:23:39.475Z,-89.00
2023-05-07T22:24:42.755Z,-90.00
2023-05-07T22:25:41.036Z,-88.00
2023-05-07T22:26:41.493Z,-89.00
2023-05-07T22:27:42.302Z,-89.00
2023-05-07T22:28:42.732Z,-90.00
2023-05-07T22:29:43.315Z,-90.00
2023-05-07T22:30:43.779Z,-89.00
2023-05-07T22:31:44.313Z,-89.00
2023-05-07T22:32:44.954Z,-91.00
2023-05-07T22:33:45.293Z,-89.00
2023-05-07T22:34:46.089Z,-90.00
2023-05-07T22:35:46.645Z,-90.00
2023-05-07T22:36:47.236Z,-91.00
2023-05-07T22:37:47.750Z,-91.00
2023-05-07T22:38:48.375Z,-90.00
2023-05-07T22:39:48.856Z,-90.00
2023-05-07T22:40:49.398Z,-91.00
2023-05-07T22:41:49.870Z,-91.00
2023-05-07T22:42:51.356Z,-90.00
2023-05-07T22:43:50.768Z,-90.00
2023-05-07T22:44:51.322Z,-87.00
2023-05-07T22:45:51.878Z,-89.00
2023-05-07T22:46:52.334Z,-89.00
2023-05-07T22:47:52.838Z,-87.00
2023-05-07T22:48:53.253Z,-89.00
2023-05-07T22:49:53.710Z,-89.00
2023-05-07T22:50:54.263Z,-88.00
2023-05-07T22:51:54.824Z,-89.00
2023-05-07T22:52:55.266Z,-88.00
2023-05-07T22:53:04.499Z,-89.00
2023-05-07T22:54:04.693Z,-89.00
2023-05-07T22:55:04.962Z,-90.00
2023-05-07T22:56:05.396Z,-88.00
2023-05-07T22:57:06.144Z,-87.00
2023-05-07T22:58:06.565Z,-89.00
2023-05-07T22:59:07.050Z,-88.00
2023-05-07T23:00:07.477Z,-87.00
2023-05-07T23:01:08.115Z,-90.00
2023-05-07T23:02:08.199Z,-88.00
2023-05-07T23:03:09.235Z,-90.00
2023-05-07T23:04:09.524Z,-91.00
2023-05-07T23:05:09.945Z,-89.00
2023-05-07T23:06:10.790Z,-89.00
2023-05-07T23:07:11.634Z,-91.00
2023-05-07T23:08:12.118Z,-89.00
2023-05-07T23:09:12.606Z,-90.00
2023-05-07T23:10:13.180Z,-88.00
2023-05-07T23:11:13.480Z,-89.00
2023-05-07T23:12:13.931Z,-87.00
2023-05-07T23:13:14.518Z,-89.00
2023-05-07T23:14:14.877Z,-89.00
2023-05-07T23:15:15.344Z,-88.00
2023-05-07T23:16:16.076Z,-89.00
2023-05-07T23:17:16.609Z,-89.00
2023-05-07T23:18:16.942Z,-88.00
2023-05-07T23:19:17.401Z,-85.00
2023-05-07T23:20:17.892Z,-89.00
2023-05-07T23:21:18.614Z,-87.00
2023-05-07T23:22:18.960Z,-87.00
2023-05-07T23:23:19.407Z,-87.00
2023-05-07T23:24:19.775Z,-87.00
2023-05-07T23:25:20.251Z,-90.00
2023-05-07T23:25:32.030Z,-89.00
2023-05-07T23:26:32.498Z,-90.00
2023-05-07T23:27:32.940Z,-88.00
2023-05-07T23:28:33.330Z,-87.00
2023-05-07T23:29:33.737Z,-88.00
2023-05-07T23:30:34.166Z,-88.00
2023-05-07T23:31:34.746Z,-88.00
2023-05-07T23:32:35.192Z,-87.00
2023-05-07T23:33:36.160Z,-87.00
2023-05-07T23:34:36.646Z,-88.00
2023-05-07T23:35:37.194Z,-87.00
2023-05-07T23:36:37.746Z,-86.00
2023-05-07T23:37:38.138Z,-88.00
2023-05-07T23:38:38.732Z,-87.00
2023-05-07T23:39:39.191Z,-87.00
2023-05-07T23:40:39.668Z,-88.00
2023-05-07T23:41:40.055Z,-87.00
2023-05-07T23:42:40.494Z,-85.00
2023-05-07T23:43:41.168Z,-87.00
2023-05-07T23:44:41.794Z,-87.00
2023-05-07T23:45:42.315Z,-86.00
2023-05-07T23:46:42.929Z,-85.00
2023-05-07T23:47:43.302Z,-84.00
2023-05-07T23:48:44.170Z,-87.00
2023-05-07T23:49:44.558Z,-86.00
2023-05-07T23:50:44.971Z,-86.00
2023-05-07T23:51:46.465Z,-87.00
2023-05-07T23:52:45.903Z,-86.00
2023-05-07T23:53:46.432Z,-86.00
2023-05-07T23:54:46.808Z,-88.00
2023-05-07T23:55:47.209Z,-86.00
2023-05-07T23:55:56.398Z,-86.00
2023-05-07T23:56:57.034Z,-86.00
2023-05-07T23:57:57.485Z,-85.00
2023-05-07T23:58:57.877Z,-86.00